Terminal Aerodrome Forecast
Issued by NWS

Home | Current Version | Previous Version | Text Only | Print | Product List | Glossary On
Versions: 1 2 3 4 5 6 7 8 9 10 11 12 13 14 15 16 17 18 19 20 21 22 23 24 25 26 27 28 29 30 31 32 33 34 35 36 37 38 39 40 41 42 43 44 45 46 47 48 49
448
FTUS45 KBOU 131852 AAA
TAFBJC
TAF AMD
KBJC 131852Z 1319/1418 26015KT P6SM SCT100 BKN150
      TEMPO 1319/1321 26015G25KT
     FM132100 28015KT P6SM SCT100 SCT150
     FM132200 30011KT P6SM FEW220
     FM140300 36010KT P6SM FEW220
     FM140800 04008KT P6SM SCT140 BKN200
     FM141200 12005KT P6SM SCT110 BKN160=

USA.gov is the U.S. government's official web portal to all federal, state and local government web resources and services.